sensor_id;sensor_type;location;lat;lon;timestamp;P1;durP1;ratioP1;P2;durP2;ratioP2
20729;SDS011;10526;50.850;12.928;2022-12-18T00:01:56;64.63;;;30.13;;
20729;SDS011;10526;50.850;12.928;2022-12-18T00:06:21;65.73;;;31.00;;
20729;SDS011;10526;50.850;12.928;2022-12-18T00:10:45;62.27;;;27.70;;
20729;SDS011;10526;50.850;12.928;2022-12-18T00:15:07;54.00;;;24.57;;
20729;SDS011;10526;50.850;12.928;2022-12-18T00:19:29;45.40;;;19.37;;
20729;SDS011;10526;50.850;12.928;2022-12-18T00:23:52;66.07;;;30.17;;
20729;SDS011;10526;50.850;12.928;2022-12-18T00:28:14;68.67;;;31.07;;
20729;SDS011;10526;50.850;12.928;2022-12-18T00:32:36;48.47;;;21.77;;
20729;SDS011;10526;50.850;12.928;2022-12-18T00:36:58;51.23;;;25.33;;
20729;SDS011;10526;50.850;12.928;2022-12-18T00:41:20;66.63;;;31.83;;
20729;SDS011;10526;50.850;12.928;2022-12-18T00:46:01;50.57;;;23.33;;
20729;SDS011;10526;50.850;12.928;2022-12-18T00:50:24;48.27;;;21.87;;
20729;SDS011;10526;50.850;12.928;2022-12-18T00:54:46;44.80;;;21.97;;
20729;SDS011;10526;50.850;12.928;2022-12-18T00:59:08;50.63;;;22.23;;
20729;SDS011;10526;50.850;12.928;2022-12-18T01:03:32;45.63;;;23.50;;
20729;SDS011;10526;50.850;12.928;2022-12-18T01:07:55;41.07;;;18.30;;
20729;SDS011;10526;50.850;12.928;2022-12-18T01:12:17;47.97;;;23.17;;
20729;SDS011;10526;50.850;12.928;2022-12-18T01:16:39;56.27;;;24.13;;
20729;SDS011;10526;50.850;12.928;2022-12-18T01:21:05;49.20;;;23.53;;
20729;SDS011;10526;50.850;12.928;2022-12-18T01:25:35;48.00;;;22.93;;
20729;SDS011;10526;50.850;12.928;2022-12-18T01:29:57;45.10;;;22.07;;
20729;SDS011;10526;50.850;12.928;2022-12-18T01:34:19;47.17;;;21.63;;
20729;SDS011;10526;50.850;12.928;2022-12-18T01:38:41;47.90;;;22.30;;
20729;SDS011;10526;50.850;12.928;2022-12-18T01:43:04;48.47;;;24.70;;
20729;SDS011;10526;50.850;12.928;2022-12-18T01:52:08;42.93;;;20.93;;
20729;SDS011;10526;50.850;12.928;2022-12-18T01:56:30;44.90;;;21.27;;
20729;SDS011;10526;50.850;12.928;2022-12-18T02:00:53;34.77;;;17.97;;
20729;SDS011;10526;50.850;12.928;2022-12-18T02:05:18;42.57;;;19.83;;
20729;SDS011;10526;50.850;12.928;2022-12-18T02:10:07;41.83;;;17.47;;
20729;SDS011;10526;50.850;12.928;2022-12-18T02:14:43;45.50;;;18.47;;
20729;SDS011;10526;50.850;12.928;2022-12-18T02:29:16;34.97;;;15.53;;
20729;SDS011;10526;50.850;12.928;2022-12-18T02:33:44;33.17;;;14.27;;
20729;SDS011;10526;50.850;12.928;2022-12-18T02:38:07;25.20;;;11.70;;
20729;SDS011;10526;50.850;12.928;2022-12-18T02:42:31;25.73;;;11.13;;
20729;SDS011;10526;50.850;12.928;2022-12-18T02:46:55;25.80;;;12.13;;
20729;SDS011;10526;50.850;12.928;2022-12-18T02:51:26;27.73;;;12.27;;
20729;SDS011;10526;50.850;12.928;2022-12-18T03:00:57;26.87;;;11.97;;
20729;SDS011;10526;50.850;12.928;2022-12-18T03:06:04;28.60;;;11.90;;
20729;SDS011;10526;50.850;12.928;2022-12-18T03:10:33;58.43;;;24.10;;
20729;SDS011;10526;50.850;12.928;2022-12-18T03:15:03;46.27;;;21.33;;
20729;SDS011;10526;50.850;12.928;2022-12-18T03:19:27;46.47;;;20.63;;
20729;SDS011;10526;50.850;12.928;2022-12-18T03:23:54;43.33;;;19.50;;
20729;SDS011;10526;50.850;12.928;2022-12-18T03:28:20;40.73;;;18.07;;
20729;SDS011;10526;50.850;12.928;2022-12-18T03:32:55;36.20;;;17.60;;
20729;SDS011;10526;50.850;12.928;2022-12-18T03:37:36;44.83;;;18.60;;
20729;SDS011;10526;50.850;12.928;2022-12-18T03:42:04;46.23;;;21.40;;
20729;SDS011;10526;50.850;12.928;2022-12-18T03:51:24;49.00;;;21.43;;
20729;SDS011;10526;50.850;12.928;2022-12-18T03:56:22;64.17;;;24.27;;
20729;SDS011;10526;50.850;12.928;2022-12-18T04:00:52;57.97;;;27.60;;
20729;SDS011;10526;50.850;12.928;2022-12-18T04:05:19;55.43;;;23.97;;
20729;SDS011;10526;50.850;12.928;2022-12-18T04:09:44;70.43;;;31.03;;
20729;SDS011;10526;50.850;12.928;2022-12-18T04:14:09;71.73;;;29.00;;
20729;SDS011;10526;50.850;12.928;2022-12-18T04:18:38;55.57;;;23.50;;
20729;SDS011;10526;50.850;12.928;2022-12-18T04:23:02;47.37;;;20.57;;
20729;SDS011;10526;50.850;12.928;2022-12-18T04:27:23;61.23;;;22.73;;
20729;SDS011;10526;50.850;12.928;2022-12-18T04:31:45;56.73;;;22.53;;
20729;SDS011;10526;50.850;12.928;2022-12-18T04:36:07;47.40;;;20.13;;
20729;SDS011;10526;50.850;12.928;2022-12-18T04:40:29;54.47;;;21.30;;
20729;SDS011;10526;50.850;12.928;2022-12-18T04:44:51;56.17;;;22.60;;
20729;SDS011;10526;50.850;12.928;2022-12-18T04:49:13;59.53;;;22.27;;
20729;SDS011;10526;50.850;12.928;2022-12-18T04:53:35;61.23;;;22.50;;
20729;SDS011;10526;50.850;12.928;2022-12-18T04:57:58;62.77;;;23.17;;
20729;SDS011;10526;50.850;12.928;2022-12-18T05:02:20;68.97;;;27.33;;
20729;SDS011;10526;50.850;12.928;2022-12-18T05:06:42;60.23;;;23.97;;
20729;SDS011;10526;50.850;12.928;2022-12-18T05:11:05;35.70;;;14.07;;
20729;SDS011;10526;50.850;12.928;2022-12-18T05:15:30;38.47;;;15.83;;
20729;SDS011;10526;50.850;12.928;2022-12-18T05:19:53;43.50;;;16.53;;
20729;SDS011;10526;50.850;12.928;2022-12-18T05:24:16;41.77;;;16.20;;
20729;SDS011;10526;50.850;12.928;2022-12-18T05:28:38;79.87;;;31.93;;
20729;SDS011;10526;50.850;12.928;2022-12-18T05:33:00;25.90;;;11.87;;
20729;SDS011;10526;50.850;12.928;2022-12-18T05:37:22;27.80;;;12.73;;
20729;SDS011;10526;50.850;12.928;2022-12-18T05:41:43;27.70;;;10.30;;
20729;SDS011;10526;50.850;12.928;2022-12-18T05:46:08;34.20;;;11.13;;
20729;SDS011;10526;50.850;12.928;2022-12-18T05:50:36;34.63;;;13.60;;
20729;SDS011;10526;50.850;12.928;2022-12-18T05:55:00;31.53;;;12.47;;
20729;SDS011;10526;50.850;12.928;2022-12-18T05:59:22;33.53;;;14.37;;
20729;SDS011;10526;50.850;12.928;2022-12-18T06:03:44;34.10;;;14.40;;
20729;SDS011;10526;50.850;12.928;2022-12-18T06:08:07;34.43;;;13.63;;
20729;SDS011;10526;50.850;12.928;2022-12-18T06:12:29;37.07;;;14.63;;
20729;SDS011;10526;50.850;12.928;2022-12-18T06:16:51;31.07;;;12.30;;
20729;SDS011;10526;50.850;12.928;2022-12-18T06:21:13;33.53;;;13.43;;
20729;SDS011;10526;50.850;12.928;2022-12-18T06:25:37;24.53;;;10.23;;
20729;SDS011;10526;50.850;12.928;2022-12-18T06:30:00;24.13;;;10.70;;
20729;SDS011;10526;50.850;12.928;2022-12-18T06:34:22;30.93;;;11.03;;
20729;SDS011;10526;50.850;12.928;2022-12-18T06:38:44;29.10;;;11.00;;
20729;SDS011;10526;50.850;12.928;2022-12-18T06:43:06;25.83;;;10.73;;
20729;SDS011;10526;50.850;12.928;2022-12-18T06:47:28;23.03;;;8.70;;
20729;SDS011;10526;50.850;12.928;2022-12-18T06:51:50;29.30;;;11.60;;
20729;SDS011;10526;50.850;12.928;2022-12-18T06:56:13;23.57;;;10.67;;
20729;SDS011;10526;50.850;12.928;2022-12-18T07:00:35;26.27;;;10.97;;
20729;SDS011;10526;50.850;12.928;2022-12-18T07:04:57;27.87;;;10.70;;
20729;SDS011;10526;50.850;12.928;2022-12-18T07:09:19;20.97;;;8.97;;
20729;SDS011;10526;50.850;12.928;2022-12-18T07:13:41;25.67;;;9.27;;
20729;SDS011;10526;50.850;12.928;2022-12-18T07:18:04;67.80;;;26.33;;
20729;SDS011;10526;50.850;12.928;2022-12-18T07:22:26;21.47;;;8.67;;
20729;SDS011;10526;50.850;12.928;2022-12-18T07:26:48;19.90;;;8.30;;
20729;SDS011;10526;50.850;12.928;2022-12-18T07:31:15;18.87;;;7.10;;
20729;SDS011;10526;50.850;12.928;2022-12-18T07:35:41;18.33;;;8.70;;
20729;SDS011;10526;50.850;12.928;2022-12-18T07:40:03;16.17;;;6.70;;
20729;SDS011;10526;50.850;12.928;2022-12-18T07:44:27;21.50;;;7.30;;
20729;SDS011;10526;50.850;12.928;2022-12-18T07:48:49;22.50;;;10.43;;
20729;SDS011;10526;50.850;12.928;2022-12-18T07:53:11;26.23;;;12.30;;
20729;SDS011;10526;50.850;12.928;2022-12-18T07:57:33;24.55;;;12.70;;
20729;SDS011;10526;50.850;12.928;2022-12-18T08:02:11;29.33;;;15.25;;
20729;SDS011;10526;50.850;12.928;2022-12-18T08:06:33;24.45;;;12.60;;
20729;SDS011;10526;50.850;12.928;2022-12-18T08:10:55;40.40;;;14.88;;
20729;SDS011;10526;50.850;12.928;2022-12-18T08:15:18;49.60;;;12.30;;
20729;SDS011;10526;50.850;12.928;2022-12-18T08:19:41;17.63;;;8.18;;
20729;SDS011;10526;50.850;12.928;2022-12-18T08:24:03;16.55;;;7.10;;
20729;SDS011;10526;50.850;12.928;2022-12-18T08:28:26;37.03;;;7.32;;
20729;SDS011;10526;50.850;12.928;2022-12-18T08:32:51;14.45;;;6.20;;
20729;SDS011;10526;50.850;12.928;2022-12-18T08:37:14;14.77;;;6.25;;
20729;SDS011;10526;50.850;12.928;2022-12-18T08:41:36;14.75;;;6.30;;
20729;SDS011;10526;50.850;12.928;2022-12-18T08:45:58;13.40;;;6.28;;
20729;SDS011;10526;50.850;12.928;2022-12-18T08:50:20;16.40;;;7.80;;
20729;SDS011;10526;50.850;12.928;2022-12-18T08:54:41;19.83;;;9.70;;
20729;SDS011;10526;50.850;12.928;2022-12-18T08:59:03;24.10;;;11.05;;
20729;SDS011;10526;50.850;12.928;2022-12-18T09:03:25;23.85;;;12.15;;
20729;SDS011;10526;50.850;12.928;2022-12-18T09:07:47;23.60;;;12.93;;
20729;SDS011;10526;50.850;12.928;2022-12-18T09:12:09;23.15;;;12.68;;
20729;SDS011;10526;50.850;12.928;2022-12-18T09:16:31;19.95;;;10.35;;
20729;SDS011;10526;50.850;12.928;2022-12-18T09:20:56;20.30;;;11.55;;
20729;SDS011;10526;50.850;12.928;2022-12-18T09:25:18;24.25;;;13.95;;
20729;SDS011;10526;50.850;12.928;2022-12-18T09:29:40;20.95;;;12.10;;
20729;SDS011;10526;50.850;12.928;2022-12-18T09:34:02;20.67;;;11.30;;
20729;SDS011;10526;50.850;12.928;2022-12-18T09:38:27;19.10;;;11.00;;
20729;SDS011;10526;50.850;12.928;2022-12-18T09:42:51;26.80;;;14.50;;
20729;SDS011;10526;50.850;12.928;2022-12-18T09:56:38;19.23;;;11.25;;
20729;SDS011;10526;50.850;12.928;2022-12-18T10:01:23;26.02;;;15.07;;
20729;SDS011;10526;50.850;12.928;2022-12-18T10:15:24;20.95;;;10.63;;
20729;SDS011;10526;50.850;12.928;2022-12-18T10:20:16;19.13;;;9.98;;
20729;SDS011;10526;50.850;12.928;2022-12-18T10:29:50;19.50;;;9.50;;
20729;SDS011;10526;50.850;12.928;2022-12-18T10:34:14;17.55;;;8.98;;
20729;SDS011;10526;50.850;12.928;2022-12-18T10:38:36;15.88;;;8.05;;
20729;SDS011;10526;50.850;12.928;2022-12-18T10:43:10;15.63;;;8.10;;
20729;SDS011;10526;50.850;12.928;2022-12-18T10:47:35;13.98;;;6.28;;
20729;SDS011;10526;50.850;12.928;2022-12-18T10:52:07;14.55;;;6.70;;
20729;SDS011;10526;50.850;12.928;2022-12-18T10:56:44;14.68;;;6.80;;
20729;SDS011;10526;50.850;12.928;2022-12-18T11:01:07;15.43;;;7.18;;
20729;SDS011;10526;50.850;12.928;2022-12-18T11:05:35;14.93;;;6.20;;
20729;SDS011;10526;50.850;12.928;2022-12-18T11:10:01;14.15;;;6.40;;
20729;SDS011;10526;50.850;12.928;2022-12-18T11:14:30;13.88;;;6.53;;
20729;SDS011;10526;50.850;12.928;2022-12-18T11:19:51;13.63;;;5.72;;
20729;SDS011;10526;50.850;12.928;2022-12-18T11:23:54;14.13;;;6.43;;
20729;SDS011;10526;50.850;12.928;2022-12-18T11:33:20;13.85;;;5.88;;
20729;SDS011;10526;50.850;12.928;2022-12-18T11:37:44;12.82;;;5.35;;
20729;SDS011;10526;50.850;12.928;2022-12-18T11:42:24;10.48;;;4.55;;
20729;SDS011;10526;50.850;12.928;2022-12-18T11:52:04;15.15;;;4.70;;
20729;SDS011;10526;50.850;12.928;2022-12-18T11:56:39;12.82;;;4.70;;
20729;SDS011;10526;50.850;12.928;2022-12-18T12:06:10;12.60;;;5.38;;
20729;SDS011;10526;50.850;12.928;2022-12-18T12:30:21;14.50;;;5.53;;
20729;SDS011;10526;50.850;12.928;2022-12-18T12:39:50;16.23;;;6.05;;
20729;SDS011;10526;50.850;12.928;2022-12-18T12:44:20;16.80;;;6.57;;
20729;SDS011;10526;50.850;12.928;2022-12-18T12:49:01;14.55;;;5.70;;
20729;SDS011;10526;50.850;12.928;2022-12-18T12:53:29;12.48;;;4.75;;
20729;SDS011;10526;50.850;12.928;2022-12-18T13:07:51;13.45;;;5.57;;
20729;SDS011;10526;50.850;12.928;2022-12-18T13:12:27;14.60;;;5.65;;
20729;SDS011;10526;50.850;12.928;2022-12-18T13:17:15;15.52;;;5.45;;
20729;SDS011;10526;50.850;12.928;2022-12-18T13:21:41;14.90;;;5.40;;
20729;SDS011;10526;50.850;12.928;2022-12-18T13:39:43;15.13;;;5.22;;
20729;SDS011;10526;50.850;12.928;2022-12-18T13:44:13;17.48;;;6.13;;
20729;SDS011;10526;50.850;12.928;2022-12-18T13:58:11;13.23;;;4.93;;
20729;SDS011;10526;50.850;12.928;2022-12-18T14:02:34;14.80;;;5.88;;
20729;SDS011;10526;50.850;12.928;2022-12-18T14:07:07;17.30;;;6.43;;
20729;SDS011;10526;50.850;12.928;2022-12-18T14:11:46;17.00;;;6.90;;
20729;SDS011;10526;50.850;12.928;2022-12-18T14:16:12;12.95;;;5.75;;
20729;SDS011;10526;50.850;12.928;2022-12-18T14:20:39;15.75;;;5.85;;
20729;SDS011;10526;50.850;12.928;2022-12-18T14:29:34;15.35;;;5.80;;
20729;SDS011;10526;50.850;12.928;2022-12-18T14:33:56;17.70;;;6.88;;
20729;SDS011;10526;50.850;12.928;2022-12-18T14:38:22;14.60;;;4.88;;
20729;SDS011;10526;50.850;12.928;2022-12-18T14:42:58;13.40;;;5.00;;
20729;SDS011;10526;50.850;12.928;2022-12-18T14:47:20;13.70;;;5.43;;
20729;SDS011;10526;50.850;12.928;2022-12-18T14:51:42;16.83;;;6.00;;
20729;SDS011;10526;50.850;12.928;2022-12-18T14:56:21;14.15;;;5.13;;
20729;SDS011;10526;50.850;12.928;2022-12-18T15:00:45;15.13;;;5.60;;
20729;SDS011;10526;50.850;12.928;2022-12-18T15:09:36;12.68;;;5.00;;
20729;SDS011;10526;50.850;12.928;2022-12-18T15:14:00;17.65;;;6.47;;
20729;SDS011;10526;50.850;12.928;2022-12-18T15:18:50;13.10;;;5.20;;
20729;SDS011;10526;50.850;12.928;2022-12-18T15:28:15;14.55;;;5.85;;
20729;SDS011;10526;50.850;12.928;2022-12-18T15:32:44;16.35;;;6.03;;
20729;SDS011;10526;50.850;12.928;2022-12-18T15:37:07;15.77;;;5.35;;
20729;SDS011;10526;50.850;12.928;2022-12-18T15:41:31;15.52;;;5.07;;
20729;SDS011;10526;50.850;12.928;2022-12-18T15:45:56;15.32;;;5.65;;
20729;SDS011;10526;50.850;12.928;2022-12-18T15:50:19;13.18;;;5.53;;
20729;SDS011;10526;50.850;12.928;2022-12-18T15:54:41;16.67;;;6.35;;
20729;SDS011;10526;50.850;12.928;2022-12-18T15:59:22;16.15;;;6.18;;
20729;SDS011;10526;50.850;12.928;2022-12-18T16:03:44;16.88;;;5.88;;
20729;SDS011;10526;50.850;12.928;2022-12-18T16:08:06;17.58;;;6.93;;
20729;SDS011;10526;50.850;12.928;2022-12-18T16:12:28;17.60;;;6.88;;
20729;SDS011;10526;50.850;12.928;2022-12-18T16:16:51;21.10;;;7.57;;
20729;SDS011;10526;50.850;12.928;2022-12-18T16:21:27;15.90;;;7.00;;
20729;SDS011;10526;50.850;12.928;2022-12-18T16:25:54;21.27;;;7.30;;
20729;SDS011;10526;50.850;12.928;2022-12-18T16:30:17;19.52;;;7.38;;
20729;SDS011;10526;50.850;12.928;2022-12-18T16:34:42;20.88;;;7.72;;
20729;SDS011;10526;50.850;12.928;2022-12-18T16:39:05;20.10;;;7.82;;
20729;SDS011;10526;50.850;12.928;2022-12-18T16:43:27;20.77;;;8.00;;
20729;SDS011;10526;50.850;12.928;2022-12-18T16:47:49;17.63;;;7.40;;
20729;SDS011;10526;50.850;12.928;2022-12-18T16:52:11;19.48;;;7.53;;
20729;SDS011;10526;50.850;12.928;2022-12-18T16:56:33;20.08;;;7.75;;
20729;SDS011;10526;50.850;12.928;2022-12-18T17:00:55;21.88;;;8.43;;
20729;SDS011;10526;50.850;12.928;2022-12-18T17:05:17;19.77;;;8.48;;
20729;SDS011;10526;50.850;12.928;2022-12-18T17:09:39;16.30;;;6.25;;
20729;SDS011;10526;50.850;12.928;2022-12-18T17:14:05;21.70;;;9.05;;
20729;SDS011;10526;50.850;12.928;2022-12-18T17:18:39;19.67;;;8.43;;
20729;SDS011;10526;50.850;12.928;2022-12-18T17:23:01;19.27;;;8.40;;
20729;SDS011;10526;50.850;12.928;2022-12-18T17:27:23;20.75;;;7.90;;
20729;SDS011;10526;50.850;12.928;2022-12-18T17:31:45;18.15;;;7.30;;
20729;SDS011;10526;50.850;12.928;2022-12-18T17:36:08;20.98;;;8.18;;
20729;SDS011;10526;50.850;12.928;2022-12-18T17:40:34;14.82;;;7.05;;
20729;SDS011;10526;50.850;12.928;2022-12-18T17:44:56;22.63;;;8.38;;
20729;SDS011;10526;50.850;12.928;2022-12-18T17:49:18;19.75;;;8.35;;
20729;SDS011;10526;50.850;12.928;2022-12-18T17:53:40;23.75;;;9.27;;
20729;SDS011;10526;50.850;12.928;2022-12-18T17:58:03;20.83;;;7.97;;
20729;SDS011;10526;50.850;12.928;2022-12-18T18:02:25;25.02;;;9.23;;
20729;SDS011;10526;50.850;12.928;2022-12-18T18:06:48;24.90;;;8.93;;
20729;SDS011;10526;50.850;12.928;2022-12-18T18:11:12;27.45;;;10.02;;
20729;SDS011;10526;50.850;12.928;2022-12-18T18:15:55;21.50;;;9.15;;
20729;SDS011;10526;50.850;12.928;2022-12-18T18:20:18;21.50;;;8.30;;
20729;SDS011;10526;50.850;12.928;2022-12-18T18:24:43;20.35;;;8.18;;
20729;SDS011;10526;50.850;12.928;2022-12-18T18:29:06;24.42;;;9.73;;
20729;SDS011;10526;50.850;12.928;2022-12-18T18:33:40;20.25;;;6.90;;
20729;SDS011;10526;50.850;12.928;2022-12-18T18:38:02;20.58;;;7.05;;
20729;SDS011;10526;50.850;12.928;2022-12-18T18:42:24;21.75;;;8.35;;
20729;SDS011;10526;50.850;12.928;2022-12-18T18:46:46;15.23;;;6.43;;
20729;SDS011;10526;50.850;12.928;2022-12-18T18:51:12;17.85;;;7.60;;
20729;SDS011;10526;50.850;12.928;2022-12-18T18:55:41;20.23;;;7.03;;
20729;SDS011;10526;50.850;12.928;2022-12-18T19:00:03;15.95;;;5.65;;
20729;SDS011;10526;50.850;12.928;2022-12-18T19:04:28;16.75;;;6.78;;
20729;SDS011;10526;50.850;12.928;2022-12-18T19:08:53;12.30;;;5.43;;
20729;SDS011;10526;50.850;12.928;2022-12-18T19:13:20;17.65;;;7.25;;
20729;SDS011;10526;50.850;12.928;2022-12-18T19:17:44;15.65;;;5.80;;
20729;SDS011;10526;50.850;12.928;2022-12-18T19:22:07;17.08;;;6.35;;
20729;SDS011;10526;50.850;12.928;2022-12-18T19:26:30;17.45;;;5.97;;
20729;SDS011;10526;50.850;12.928;2022-12-18T19:30:53;15.10;;;5.85;;
20729;SDS011;10526;50.850;12.928;2022-12-18T19:35:20;14.90;;;5.50;;
20729;SDS011;10526;50.850;12.928;2022-12-18T19:39:41;12.23;;;4.18;;
20729;SDS011;10526;50.850;12.928;2022-12-18T19:44:04;14.70;;;5.57;;
20729;SDS011;10526;50.850;12.928;2022-12-18T19:48:28;11.20;;;4.53;;
20729;SDS011;10526;50.850;12.928;2022-12-18T19:52:50;11.85;;;4.53;;
20729;SDS011;10526;50.850;12.928;2022-12-18T19:57:12;15.38;;;4.95;;
20729;SDS011;10526;50.850;12.928;2022-12-18T20:01:34;11.75;;;4.68;;
20729;SDS011;10526;50.850;12.928;2022-12-18T20:06:10;10.43;;;3.83;;
20729;SDS011;10526;50.850;12.928;2022-12-18T20:10:35;13.80;;;4.55;;
20729;SDS011;10526;50.850;12.928;2022-12-18T20:14:57;10.57;;;4.05;;
20729;SDS011;10526;50.850;12.928;2022-12-18T20:19:19;14.10;;;4.68;;
20729;SDS011;10526;50.850;12.928;2022-12-18T20:23:42;12.80;;;4.63;;
20729;SDS011;10526;50.850;12.928;2022-12-18T20:28:06;12.52;;;4.65;;
20729;SDS011;10526;50.850;12.928;2022-12-18T20:32:28;8.57;;;3.70;;
20729;SDS011;10526;50.850;12.928;2022-12-18T20:36:57;13.77;;;5.55;;
20729;SDS011;10526;50.850;12.928;2022-12-18T20:41:20;13.48;;;4.97;;
20729;SDS011;10526;50.850;12.928;2022-12-18T20:45:43;12.15;;;4.60;;
20729;SDS011;10526;50.850;12.928;2022-12-18T20:50:06;10.57;;;3.50;;
20729;SDS011;10526;50.850;12.928;2022-12-18T20:54:29;15.25;;;5.00;;
20729;SDS011;10526;50.850;12.928;2022-12-18T20:58:54;10.27;;;4.13;;
20729;SDS011;10526;50.850;12.928;2022-12-18T21:03:20;12.10;;;4.60;;
20729;SDS011;10526;50.850;12.928;2022-12-18T21:07:42;12.48;;;4.35;;
20729;SDS011;10526;50.850;12.928;2022-12-18T21:12:14;12.55;;;4.18;;
20729;SDS011;10526;50.850;12.928;2022-12-18T21:17:01;11.88;;;4.60;;
20729;SDS011;10526;50.850;12.928;2022-12-18T21:21:23;8.37;;;3.33;;
20729;SDS011;10526;50.850;12.928;2022-12-18T21:25:47;7.70;;;2.75;;
20729;SDS011;10526;50.850;12.928;2022-12-18T21:30:16;9.23;;;3.50;;
20729;SDS011;10526;50.850;12.928;2022-12-18T21:34:38;11.50;;;4.07;;
20729;SDS011;10526;50.850;12.928;2022-12-18T21:39:07;9.55;;;4.03;;
20729;SDS011;10526;50.850;12.928;2022-12-18T21:43:29;13.70;;;4.22;;
20729;SDS011;10526;50.850;12.928;2022-12-18T21:48:20;11.15;;;4.07;;
20729;SDS011;10526;50.850;12.928;2022-12-18T21:52:42;11.75;;;3.90;;
20729;SDS011;10526;50.850;12.928;2022-12-18T21:57:05;8.40;;;3.53;;
20729;SDS011;10526;50.850;12.928;2022-12-18T22:01:28;10.50;;;4.43;;
20729;SDS011;10526;50.850;12.928;2022-12-18T22:05:57;12.10;;;4.35;;
20729;SDS011;10526;50.850;12.928;2022-12-18T22:10:29;9.20;;;3.60;;
20729;SDS011;10526;50.850;12.928;2022-12-18T22:14:51;10.18;;;3.60;;
20729;SDS011;10526;50.850;12.928;2022-12-18T22:19:14;11.43;;;3.83;;
20729;SDS011;10526;50.850;12.928;2022-12-18T22:23:37;11.77;;;3.88;;
20729;SDS011;10526;50.850;12.928;2022-12-18T22:27:58;11.10;;;4.40;;
20729;SDS011;10526;50.850;12.928;2022-12-18T22:32:39;10.10;;;3.97;;
20729;SDS011;10526;50.850;12.928;2022-12-18T22:37:01;11.38;;;4.72;;
20729;SDS011;10526;50.850;12.928;2022-12-18T22:41:23;12.05;;;4.05;;
20729;SDS011;10526;50.850;12.928;2022-12-18T22:45:45;12.15;;;4.55;;
20729;SDS011;10526;50.850;12.928;2022-12-18T22:50:11;9.55;;;3.53;;
20729;SDS011;10526;50.850;12.928;2022-12-18T22:54:34;13.40;;;4.70;;
20729;SDS011;10526;50.850;12.928;2022-12-18T22:58:56;10.43;;;4.00;;
20729;SDS011;10526;50.850;12.928;2022-12-18T23:03:18;14.50;;;5.25;;
20729;SDS011;10526;50.850;12.928;2022-12-18T23:07:40;12.52;;;4.55;;
20729;SDS011;10526;50.850;12.928;2022-12-18T23:12:02;15.95;;;5.22;;
20729;SDS011;10526;50.850;12.928;2022-12-18T23:16:24;11.93;;;3.90;;
20729;SDS011;10526;50.850;12.928;2022-12-18T23:20:47;10.27;;;3.63;;
20729;SDS011;10526;50.850;12.928;2022-12-18T23:25:10;16.65;;;5.75;;
20729;SDS011;10526;50.850;12.928;2022-12-18T23:29:32;12.65;;;4.70;;
20729;SDS011;10526;50.850;12.928;2022-12-18T23:33:55;12.70;;;4.90;;
20729;SDS011;10526;50.850;12.928;2022-12-18T23:38:21;14.05;;;5.72;;
20729;SDS011;10526;50.850;12.928;2022-12-18T23:42:43;14.35;;;5.25;;
20729;SDS011;10526;50.850;12.928;2022-12-18T23:47:05;13.25;;;5.20;;
20729;SDS011;10526;50.850;12.928;2022-12-18T23:51:27;12.27;;;4.07;;
20729;SDS011;10526;50.850;12.928;2022-12-18T23:55:50;14.05;;;5.07;;
